Lebanon, Maine
Current Conditions -  °F | °C
As of 2:15 AM on Sunday 23 Nov 2014 (Local Time) from KSFM Reporting Station
Broken Clouds Broken Clouds  
Wind Chill: 36°   Ceiling: 11000
Heat Index: 36°   Visibility: 10mi
Dew Point: 18°   Wind: 3mph
Humidity: 48%   Direction: 190°S
Pressure: 30.01"   Gusts: NA
Location:  43.39°N, 70.85°W
Report Text: KSFM 230715Z AUTO 19003KT 10SM BKN110 02/M08 A3001 RMK AO1
Loading
Personal Weather Stations






























Interactive Weather Map New forecast layout! Learn more

10-Day Weather Forecast

Advertisements
Track Severe Weather on mobile